Flight Track Log - Related Links

Times and Time Zones

All times are in EST time to prevent confusion due to time zone crossing. See the CSH9417 flight status page for this flight to view local times or setup timezone preferences in your user account.

Time Position Orientation Groundspeed Altitude Reporting Facility
EST Latitude Longitude Course Direction KTS MPH feet Rate Location/Type
Sun 07:02:00 AM 31.7459 120.9511 329° Northwest  Level Estimated
Sun 07:03:00 AM 31.8006 120.9123 329° Northwest  Level Estimated
Sun 07:04:00 AM 31.8553 120.8735 329° Northwest  Level Estimated
Sun 07:05:00 AM 31.9100 120.8346 329° Northwest  Level Estimated
Sun 07:06:00 AM 31.9647 120.7957 329° Northwest  Level Estimated
Sun 07:07:00 AM 32.0194 120.7568 329° Northwest  Level Estimated
Sun 07:08:00 AM 32.0741 120.7178 329° Northwest  Level Estimated
Sun 07:09:00 AM 32.1287 120.6787 329° Northwest  Level Estimated
Sun 07:10:00 AM 32.1834 120.6396 329° Northwest  Level Estimated
Sun 07:11:00 AM 32.2380 120.6004 329° Northwest  Level Estimated
Sun 07:12:00 AM 32.2927 120.5613 329° Northwest  Level Estimated
Sun 07:13:00 AM 32.3473 120.5220 329° Northwest  Level Estimated
Sun 07:14:00 AM 32.4019 120.4827 329° Northwest  Level Estimated
Sun 07:15:00 AM 32.4565 120.4434 329° Northwest  Level Estimated
Sun 07:16:00 AM 32.5111 120.4040 329° Northwest  Level Estimated
Sun 07:17:00 AM 32.5656 120.3646 329° Northwest  Level Estimated
Sun 07:18:00 AM 32.6202 120.3251 329° Northwest  Level Estimated
Sun 07:19:00 AM 32.6747 120.2856 329° Northwest  Level Estimated
Sun 07:20:00 AM 32.7292 120.2460 329° Northwest  Level Estimated
Sun 07:21:00 AM 32.7838 120.2064 329° Northwest  Level Estimated
Sun 07:22:00 AM 32.8383 120.1667 329° Northwest  Level Estimated
Sun 07:23:00 AM 32.8927 120.1270 329° Northwest  Level Estimated
Sun 07:24:00 AM 32.9472 120.0872 329° Northwest  Level Estimated
Sun 07:25:00 AM 33.0017 120.0474 328° Northwest  Level Estimated
Sun 07:26:00 AM 33.0561 120.0075 328° Northwest  Level Estimated
Sun 07:27:00 AM 33.1106 119.9676 328° Northwest  Level Estimated
Sun 07:28:00 AM 33.1650 119.9277 328° Northwest  Level Estimated
Sun 07:29:00 AM 33.2194 119.8876 328° Northwest  Level Estimated
Sun 07:30:00 AM 33.2738 119.8476 328° Northwest  Level Estimated
Sun 07:31:00 AM 33.3282 119.8074 328° Northwest  Level Estimated
Sun 07:32:00 AM 33.3826 119.7673 328° Northwest  Level Estimated
Sun 07:33:00 AM 33.4370 119.7271 328° Northwest  Level Estimated
Sun 07:34:00 AM 33.4913 119.6868 328° Northwest  Level Estimated
Sun 07:35:00 AM 33.5457 119.6465 328° Northwest  Level Estimated
Sun 07:36:00 AM 33.6000 119.6061 328° Northwest  Level Estimated
Sun 07:37:00 AM 33.6543 119.5657 328° Northwest  Level Estimated
Sun 07:38:00 AM 33.7086 119.5252 328° Northwest  Level Estimated
Sun 07:39:00 AM 33.7629 119.4847 328° Northwest  Level Estimated
Sun 07:40:00 AM 33.8172 119.4441 328° Northwest  Level Estimated
Sun 07:41:00 AM 33.8714 119.4035 328° Northwest  Level Estimated
Sun 07:42:00 AM 33.9257 119.3628 328° Northwest  Level Estimated
Sun 07:43:00 AM 33.9799 119.3221 328° Northwest  Level Estimated
Sun 07:44:00 AM 34.0341 119.2813 328° Northwest  Level Estimated
Sun 07:45:00 AM 34.0883 119.2405 328° Northwest  Level Estimated
Sun 07:46:00 AM 34.1425 119.1996 328° Northwest  Level Estimated
Sun 07:47:00 AM 34.1967 119.1587 328° Northwest  Level Estimated
Sun 07:48:00 AM 34.2509 119.1177 328° Northwest  Level Estimated
Sun 07:49:00 AM 34.3050 119.0766 328° Northwest  Level Estimated
Sun 07:50:00 AM 34.3591 119.0355 328° Northwest  Level Estimated

Login

Don't have an account? Register now (free) for customized features, flight alerts, and more!